HRYR/KGL METAR and TAF weather

Enter ICAO airport designator
Station Type Date Time Source
HRYR METAR 2019/04/21 22:00 UTC NOAA

HRYR 212200Z 32007KT 9999 SCT025 SCT100 18/16 Q1019 NOSIG


Station Type Date Time Source
HRYR Decoded METAR 2019/04/21 22:00 UTC NOAA

Kigali, Rwanda (HRYR) 01-58S 030-07E 1497M
Apr 21, 2019 - 06:00 PM EDT / 2019.04.21 2200 UTC
Wind: from the NW (320 degrees) at 8 MPH (7 KT):0
Visibility: greater than 7 mile(s):0
Sky conditions: partly cloudy
Temperature: 64 F (18 C)
Dew Point: 60 F (16 C)
Relative Humidity: 88%
Pressure (altimeter): 30.09 in. Hg (1019 hPa)
ob: HRYR 212200Z 32007KT 9999 SCT025 SCT100 18/16 Q1019 NOSIG
cycle: 22

Station Type Date Time Source
HRYR TAF 2019/04/21 18:12 UTC NOAA

TAF TAF HRYR 211700Z 2118/2224 17003KT 9999 FEW025 SCT100
FM212000 32004KT SCT025
BECMG2202/2205 16007KT SCT025 SCT100
FM220900 16005KT 9999 BKN025
TEMPO 2212/2216 18010G20KT -TSRA FEW023CB BKN025
FM222000 18005KT SCT025

Example: see airport list